sensor_id;sensor_type;location;lat;lon;timestamp;temperature;humidity
13245;DHT22;6689;53.400;12.486;2024-01-06T00:00:29;0.70;99.90
13245;DHT22;6689;53.400;12.486;2024-01-06T00:02:57;0.60;99.90
13245;DHT22;6689;53.400;12.486;2024-01-06T00:05:24;0.70;99.90
13245;DHT22;6689;53.400;12.486;2024-01-06T00:07:51;0.70;99.90
13245;DHT22;6689;53.400;12.486;2024-01-06T00:10:19;0.80;99.90
13245;DHT22;6689;53.400;12.486;2024-01-06T00:12:48;0.70;99.90
13245;DHT22;6689;53.400;12.486;2024-01-06T00:15:15;0.70;99.90
13245;DHT22;6689;53.400;12.486;2024-01-06T00:17:44;0.80;99.90
13245;DHT22;6689;53.400;12.486;2024-01-06T00:20:13;0.70;99.90
13245;DHT22;6689;53.400;12.486;2024-01-06T00:22:41;0.80;99.90
13245;DHT22;6689;53.400;12.486;2024-01-06T00:25:10;0.60;99.90
13245;DHT22;6689;53.400;12.486;2024-01-06T00:27:37;0.60;99.90
13245;DHT22;6689;53.400;12.486;2024-01-06T00:30:07;0.70;99.90
13245;DHT22;6689;53.400;12.486;2024-01-06T00:32:34;0.60;99.90
13245;DHT22;6689;53.400;12.486;2024-01-06T00:35:01;0.70;99.90
13245;DHT22;6689;53.400;12.486;2024-01-06T00:37:29;0.70;99.90
13245;DHT22;6689;53.400;12.486;2024-01-06T00:39:56;0.70;99.90
13245;DHT22;6689;53.400;12.486;2024-01-06T00:42:23;0.70;99.90
13245;DHT22;6689;53.400;12.486;2024-01-06T00:44:50;0.70;99.90
13245;DHT22;6689;53.400;12.486;2024-01-06T00:47:19;0.70;99.90
13245;DHT22;6689;53.400;12.486;2024-01-06T00:49:50;0.70;99.90
13245;DHT22;6689;53.400;12.486;2024-01-06T00:52:17;0.80;99.90
13245;DHT22;6689;53.400;12.486;2024-01-06T00:54:45;0.70;99.90
13245;DHT22;6689;53.400;12.486;2024-01-06T00:57:14;0.80;99.90
13245;DHT22;6689;53.400;12.486;2024-01-06T00:59:42;0.80;99.90
13245;DHT22;6689;53.400;12.486;2024-01-06T01:02:09;0.80;99.90
13245;DHT22;6689;53.400;12.486;2024-01-06T01:04:38;0.70;99.90
13245;DHT22;6689;53.400;12.486;2024-01-06T01:07:07;0.80;99.90
13245;DHT22;6689;53.400;12.486;2024-01-06T01:09:35;0.80;99.90
13245;DHT22;6689;53.400;12.486;2024-01-06T01:12:02;0.80;99.90
13245;DHT22;6689;53.400;12.486;2024-01-06T01:14:30;0.80;99.90
13245;DHT22;6689;53.400;12.486;2024-01-06T01:16:57;0.70;99.90
13245;DHT22;6689;53.400;12.486;2024-01-06T01:19:25;0.80;99.90
13245;DHT22;6689;53.400;12.486;2024-01-06T01:21:54;0.80;99.90
13245;DHT22;6689;53.400;12.486;2024-01-06T01:24:21;0.80;99.90
13245;DHT22;6689;53.400;12.486;2024-01-06T01:26:52;0.70;99.90
13245;DHT22;6689;53.400;12.486;2024-01-06T01:29:19;0.80;99.90
13245;DHT22;6689;53.400;12.486;2024-01-06T01:31:46;0.70;99.90
13245;DHT22;6689;53.400;12.486;2024-01-06T01:34:13;0.70;99.90
13245;DHT22;6689;53.400;12.486;2024-01-06T01:36:40;0.70;99.90
13245;DHT22;6689;53.400;12.486;2024-01-06T01:39:10;0.80;99.90
13245;DHT22;6689;53.400;12.486;2024-01-06T01:41:37;0.80;99.90
13245;DHT22;6689;53.400;12.486;2024-01-06T01:44:05;0.80;99.90
13245;DHT22;6689;53.400;12.486;2024-01-06T01:46:32;0.80;99.90
13245;DHT22;6689;53.400;12.486;2024-01-06T01:49:01;0.80;99.90
13245;DHT22;6689;53.400;12.486;2024-01-06T01:51:30;0.80;99.90
13245;DHT22;6689;53.400;12.486;2024-01-06T01:53:59;0.80;99.90
13245;DHT22;6689;53.400;12.486;2024-01-06T01:56:29;0.70;99.90
13245;DHT22;6689;53.400;12.486;2024-01-06T01:59:00;0.70;99.90
13245;DHT22;6689;53.400;12.486;2024-01-06T02:01:32;0.70;99.90
13245;DHT22;6689;53.400;12.486;2024-01-06T02:03:59;0.60;99.90
13245;DHT22;6689;53.400;12.486;2024-01-06T02:06:29;0.70;99.90
13245;DHT22;6689;53.400;12.486;2024-01-06T02:08:56;0.70;99.90
13245;DHT22;6689;53.400;12.486;2024-01-06T02:11:25;0.60;99.90
13245;DHT22;6689;53.400;12.486;2024-01-06T02:13:54;0.60;99.90
13245;DHT22;6689;53.400;12.486;2024-01-06T02:16:21;0.60;99.90
13245;DHT22;6689;53.400;12.486;2024-01-06T02:18:50;0.60;99.90
13245;DHT22;6689;53.400;12.486;2024-01-06T02:21:17;0.70;99.90
13245;DHT22;6689;53.400;12.486;2024-01-06T02:23:49;0.70;99.90
13245;DHT22;6689;53.400;12.486;2024-01-06T02:26:17;0.60;99.90
13245;DHT22;6689;53.400;12.486;2024-01-06T02:28:44;0.60;99.90
13245;DHT22;6689;53.400;12.486;2024-01-06T02:31:13;0.50;99.90
13245;DHT22;6689;53.400;12.486;2024-01-06T02:33:41;0.60;99.90
13245;DHT22;6689;53.400;12.486;2024-01-06T02:36:08;0.70;99.90
13245;DHT22;6689;53.400;12.486;2024-01-06T02:38:36;0.60;99.90
13245;DHT22;6689;53.400;12.486;2024-01-06T02:41:04;0.70;99.90
13245;DHT22;6689;53.400;12.486;2024-01-06T02:43:34;0.70;99.90
13245;DHT22;6689;53.400;12.486;2024-01-06T02:46:01;0.70;99.90
13245;DHT22;6689;53.400;12.486;2024-01-06T02:48:30;0.50;99.90
13245;DHT22;6689;53.400;12.486;2024-01-06T02:50:57;0.70;99.90
13245;DHT22;6689;53.400;12.486;2024-01-06T02:53:24;0.70;99.90
13245;DHT22;6689;53.400;12.486;2024-01-06T02:55:52;0.70;99.90
13245;DHT22;6689;53.400;12.486;2024-01-06T02:58:21;0.70;99.90
13245;DHT22;6689;53.400;12.486;2024-01-06T03:00:48;0.60;99.90
13245;DHT22;6689;53.400;12.486;2024-01-06T03:03:15;0.70;99.90
13245;DHT22;6689;53.400;12.486;2024-01-06T03:05:45;0.70;99.90
13245;DHT22;6689;53.400;12.486;2024-01-06T03:08:14;0.60;99.90
13245;DHT22;6689;53.400;12.486;2024-01-06T03:10:42;0.70;99.90
13245;DHT22;6689;53.400;12.486;2024-01-06T03:13:10;0.70;99.90
13245;DHT22;6689;53.400;12.486;2024-01-06T03:15:39;0.70;99.90
13245;DHT22;6689;53.400;12.486;2024-01-06T03:18:07;0.60;99.90
13245;DHT22;6689;53.400;12.486;2024-01-06T03:20:35;0.60;99.90
13245;DHT22;6689;53.400;12.486;2024-01-06T03:23:03;0.60;99.90
13245;DHT22;6689;53.400;12.486;2024-01-06T03:25:46;0.60;99.90
13245;DHT22;6689;53.400;12.486;2024-01-06T03:28:14;0.70;99.90
13245;DHT22;6689;53.400;12.486;2024-01-06T03:30:44;0.60;99.90
13245;DHT22;6689;53.400;12.486;2024-01-06T03:33:11;0.60;99.90
13245;DHT22;6689;53.400;12.486;2024-01-06T03:35:38;0.60;99.90
13245;DHT22;6689;53.400;12.486;2024-01-06T03:38:06;0.50;99.90
13245;DHT22;6689;53.400;12.486;2024-01-06T03:40:38;0.50;99.90
13245;DHT22;6689;53.400;12.486;2024-01-06T03:43:07;0.50;99.90
13245;DHT22;6689;53.400;12.486;2024-01-06T03:45:34;0.50;99.90
13245;DHT22;6689;53.400;12.486;2024-01-06T03:48:04;0.50;99.90
13245;DHT22;6689;53.400;12.486;2024-01-06T03:50:31;0.40;99.90
13245;DHT22;6689;53.400;12.486;2024-01-06T03:52:59;0.50;99.90
13245;DHT22;6689;53.400;12.486;2024-01-06T03:55:26;0.40;99.90
13245;DHT22;6689;53.400;12.486;2024-01-06T03:57:53;0.50;99.90
13245;DHT22;6689;53.400;12.486;2024-01-06T04:00:21;0.50;99.90
13245;DHT22;6689;53.400;12.486;2024-01-06T04:02:49;0.50;99.90
13245;DHT22;6689;53.400;12.486;2024-01-06T04:05:18;0.40;99.90
13245;DHT22;6689;53.400;12.486;2024-01-06T04:07:45;0.40;99.90
13245;DHT22;6689;53.400;12.486;2024-01-06T04:10:12;0.40;99.90
13245;DHT22;6689;53.400;12.486;2024-01-06T04:12:40;0.50;99.90
13245;DHT22;6689;53.400;12.486;2024-01-06T04:15:08;0.50;99.90
13245;DHT22;6689;53.400;12.486;2024-01-06T04:17:35;0.50;99.90
13245;DHT22;6689;53.400;12.486;2024-01-06T04:20:02;0.50;99.90
13245;DHT22;6689;53.400;12.486;2024-01-06T04:22:31;0.50;99.90
13245;DHT22;6689;53.400;12.486;2024-01-06T04:24:58;0.50;99.90
13245;DHT22;6689;53.400;12.486;2024-01-06T04:27:26;0.50;99.90
13245;DHT22;6689;53.400;12.486;2024-01-06T04:29:53;0.40;99.90
13245;DHT22;6689;53.400;12.486;2024-01-06T04:32:20;0.40;99.90
13245;DHT22;6689;53.400;12.486;2024-01-06T04:34:48;0.40;99.90
13245;DHT22;6689;53.400;12.486;2024-01-06T04:37:15;0.30;99.90
13245;DHT22;6689;53.400;12.486;2024-01-06T04:39:44;0.30;99.90
13245;DHT22;6689;53.400;12.486;2024-01-06T04:42:13;0.10;99.90
13245;DHT22;6689;53.400;12.486;2024-01-06T04:44:42;0.20;99.90
13245;DHT22;6689;53.400;12.486;2024-01-06T04:47:09;0.30;99.90
13245;DHT22;6689;53.400;12.486;2024-01-06T04:49:37;0.30;99.90
13245;DHT22;6689;53.400;12.486;2024-01-06T04:52:05;0.20;99.90
13245;DHT22;6689;53.400;12.486;2024-01-06T04:54:32;0.20;99.90
13245;DHT22;6689;53.400;12.486;2024-01-06T04:57:01;0.30;99.90
13245;DHT22;6689;53.400;12.486;2024-01-06T04:59:30;0.20;99.90
13245;DHT22;6689;53.400;12.486;2024-01-06T05:01:58;0.20;99.90
13245;DHT22;6689;53.400;12.486;2024-01-06T05:04:26;0.20;99.90
13245;DHT22;6689;53.400;12.486;2024-01-06T05:06:56;0.20;99.90
13245;DHT22;6689;53.400;12.486;2024-01-06T05:09:23;0.10;99.90
13245;DHT22;6689;53.400;12.486;2024-01-06T05:11:51;0.20;99.90
13245;DHT22;6689;53.400;12.486;2024-01-06T05:14:20;0.20;99.90
13245;DHT22;6689;53.400;12.486;2024-01-06T05:16:48;0.20;99.90
13245;DHT22;6689;53.400;12.486;2024-01-06T05:19:15;0.10;99.90
13245;DHT22;6689;53.400;12.486;2024-01-06T05:21:46;0.20;99.90
13245;DHT22;6689;53.400;12.486;2024-01-06T05:24:13;0.10;99.90
13245;DHT22;6689;53.400;12.486;2024-01-06T05:26:41;0.20;99.90
13245;DHT22;6689;53.400;12.486;2024-01-06T05:29:08;0.20;99.90
13245;DHT22;6689;53.400;12.486;2024-01-06T05:31:38;0.20;99.90
13245;DHT22;6689;53.400;12.486;2024-01-06T05:34:06;0.20;99.90
13245;DHT22;6689;53.400;12.486;2024-01-06T05:36:33;0.10;99.90
13245;DHT22;6689;53.400;12.486;2024-01-06T05:39:01;0.10;99.90
13245;DHT22;6689;53.400;12.486;2024-01-06T05:41:28;0.20;99.90
13245;DHT22;6689;53.400;12.486;2024-01-06T05:43:57;0.30;99.90
13245;DHT22;6689;53.400;12.486;2024-01-06T05:46:24;0.20;99.90
13245;DHT22;6689;53.400;12.486;2024-01-06T05:48:53;0.20;99.90
13245;DHT22;6689;53.400;12.486;2024-01-06T05:51:23;0.20;99.90
13245;DHT22;6689;53.400;12.486;2024-01-06T05:53:50;0.30;99.90
13245;DHT22;6689;53.400;12.486;2024-01-06T05:56:26;0.10;99.90
13245;DHT22;6689;53.400;12.486;2024-01-06T05:58:55;0.10;99.90
13245;DHT22;6689;53.400;12.486;2024-01-06T06:01:22;0.00;99.90
13245;DHT22;6689;53.400;12.486;2024-01-06T06:03:51;0.00;99.90
13245;DHT22;6689;53.400;12.486;2024-01-06T06:06:19;0.00;99.90
13245;DHT22;6689;53.400;12.486;2024-01-06T06:08:47;0.10;99.90
13245;DHT22;6689;53.400;12.486;2024-01-06T06:11:14;0.10;99.90
13245;DHT22;6689;53.400;12.486;2024-01-06T06:13:42;0.10;99.90
13245;DHT22;6689;53.400;12.486;2024-01-06T06:16:11;0.00;99.90
13245;DHT22;6689;53.400;12.486;2024-01-06T06:18:39;0.10;99.90
13245;DHT22;6689;53.400;12.486;2024-01-06T06:21:10;-0.10;99.90
13245;DHT22;6689;53.400;12.486;2024-01-06T06:23:38;0.10;99.90
13245;DHT22;6689;53.400;12.486;2024-01-06T06:26:06;0.10;99.90
13245;DHT22;6689;53.400;12.486;2024-01-06T06:28:33;0.10;99.90
13245;DHT22;6689;53.400;12.486;2024-01-06T06:31:01;0.10;99.90
13245;DHT22;6689;53.400;12.486;2024-01-06T06:33:29;0.20;99.90
13245;DHT22;6689;53.400;12.486;2024-01-06T06:35:56;0.20;99.90
13245;DHT22;6689;53.400;12.486;2024-01-06T06:38:23;0.10;99.90
13245;DHT22;6689;53.400;12.486;2024-01-06T06:40:53;0.00;99.90
13245;DHT22;6689;53.400;12.486;2024-01-06T06:43:20;0.10;99.90
13245;DHT22;6689;53.400;12.486;2024-01-06T06:45:47;0.20;99.90
13245;DHT22;6689;53.400;12.486;2024-01-06T06:48:15;0.20;99.90
13245;DHT22;6689;53.400;12.486;2024-01-06T06:50:42;0.10;99.90
13245;DHT22;6689;53.400;12.486;2024-01-06T06:53:10;0.10;99.90
13245;DHT22;6689;53.400;12.486;2024-01-06T06:55:38;0.20;99.90
13245;DHT22;6689;53.400;12.486;2024-01-06T06:58:08;0.20;99.90
13245;DHT22;6689;53.400;12.486;2024-01-06T07:00:35;0.10;99.90
13245;DHT22;6689;53.400;12.486;2024-01-06T07:03:04;0.00;99.90
13245;DHT22;6689;53.400;12.486;2024-01-06T07:05:32;0.10;99.90
13245;DHT22;6689;53.400;12.486;2024-01-06T07:08:00;0.10;99.90
13245;DHT22;6689;53.400;12.486;2024-01-06T07:10:28;0.10;99.90
13245;DHT22;6689;53.400;12.486;2024-01-06T07:12:55;0.10;99.90
13245;DHT22;6689;53.400;12.486;2024-01-06T07:15:26;0.20;99.90
13245;DHT22;6689;53.400;12.486;2024-01-06T07:17:54;0.20;99.90
13245;DHT22;6689;53.400;12.486;2024-01-06T07:20:21;0.20;99.90
13245;DHT22;6689;53.400;12.486;2024-01-06T07:22:49;0.10;99.90
13245;DHT22;6689;53.400;12.486;2024-01-06T07:25:16;0.10;99.90
13245;DHT22;6689;53.400;12.486;2024-01-06T07:27:46;0.10;99.90
13245;DHT22;6689;53.400;12.486;2024-01-06T07:30:16;0.20;99.90
13245;DHT22;6689;53.400;12.486;2024-01-06T07:32:44;0.10;99.90
13245;DHT22;6689;53.400;12.486;2024-01-06T07:35:12;0.10;99.90
13245;DHT22;6689;53.400;12.486;2024-01-06T07:37:39;0.10;99.90
13245;DHT22;6689;53.400;12.486;2024-01-06T07:40:09;0.00;99.90
13245;DHT22;6689;53.400;12.486;2024-01-06T07:42:36;0.10;99.90
13245;DHT22;6689;53.400;12.486;2024-01-06T07:45:04;0.20;99.90
13245;DHT22;6689;53.400;12.486;2024-01-06T07:47:31;0.10;96.10
13245;DHT22;6689;53.400;12.486;2024-01-06T07:50:00;0.10;99.90
13245;DHT22;6689;53.400;12.486;2024-01-06T07:52:27;0.10;99.90
13245;DHT22;6689;53.400;12.486;2024-01-06T07:54:57;0.20;88.50
13245;DHT22;6689;53.400;12.486;2024-01-06T07:57:24;0.20;78.90
13245;DHT22;6689;53.400;12.486;2024-01-06T07:59:52;0.10;99.90
13245;DHT22;6689;53.400;12.486;2024-01-06T08:02:20;0.10;99.90
13245;DHT22;6689;53.400;12.486;2024-01-06T08:04:48;0.10;99.90
13245;DHT22;6689;53.400;12.486;2024-01-06T08:07:17;0.00;99.90
13245;DHT22;6689;53.400;12.486;2024-01-06T08:09:45;0.00;99.90
13245;DHT22;6689;53.400;12.486;2024-01-06T08:12:15;0.10;89.80
13245;DHT22;6689;53.400;12.486;2024-01-06T08:14:42;0.10;99.90
13245;DHT22;6689;53.400;12.486;2024-01-06T08:17:10;0.10;92.00
13245;DHT22;6689;53.400;12.486;2024-01-06T08:19:37;0.20;77.90
13245;DHT22;6689;53.400;12.486;2024-01-06T08:22:04;0.10;70.70
13245;DHT22;6689;53.400;12.486;2024-01-06T08:24:33;0.20;99.90
13245;DHT22;6689;53.400;12.486;2024-01-06T08:27:00;0.20;77.90
13245;DHT22;6689;53.400;12.486;2024-01-06T08:29:27;0.50;80.70
13245;DHT22;6689;53.400;12.486;2024-01-06T08:31:55;0.20;75.50
13245;DHT22;6689;53.400;12.486;2024-01-06T08:34:22;0.20;76.90
13245;DHT22;6689;53.400;12.486;2024-01-06T08:36:51;0.20;82.40
13245;DHT22;6689;53.400;12.486;2024-01-06T08:39:18;0.20;76.80
13245;DHT22;6689;53.400;12.486;2024-01-06T08:41:48;0.20;62.80
13245;DHT22;6689;53.400;12.486;2024-01-06T08:44:15;0.20;65.90
13245;DHT22;6689;53.400;12.486;2024-01-06T08:46:42;0.20;70.70
13245;DHT22;6689;53.400;12.486;2024-01-06T08:49:10;0.20;73.90
13245;DHT22;6689;53.400;12.486;2024-01-06T08:51:37;0.20;80.90
13245;DHT22;6689;53.400;12.486;2024-01-06T08:54:04;0.10;77.00
13245;DHT22;6689;53.400;12.486;2024-01-06T08:56:33;0.10;67.20
13245;DHT22;6689;53.400;12.486;2024-01-06T08:59:02;0.20;74.30
13245;DHT22;6689;53.400;12.486;2024-01-06T09:01:30;0.30;86.20
13245;DHT22;6689;53.400;12.486;2024-01-06T09:04:00;0.30;55.50
13245;DHT22;6689;53.400;12.486;2024-01-06T09:06:27;0.30;53.60
13245;DHT22;6689;53.400;12.486;2024-01-06T09:08:54;0.30;49.40
13245;DHT22;6689;53.400;12.486;2024-01-06T09:11:21;0.20;47.40
13245;DHT22;6689;53.400;12.486;2024-01-06T09:13:50;0.30;56.80
13245;DHT22;6689;53.400;12.486;2024-01-06T09:16:20;0.20;60.80
13245;DHT22;6689;53.400;12.486;2024-01-06T09:18:47;0.30;53.20
13245;DHT22;6689;53.400;12.486;2024-01-06T09:21:15;0.30;35.20
13245;DHT22;6689;53.400;12.486;2024-01-06T09:23:43;0.00;35.40
13245;DHT22;6689;53.400;12.486;2024-01-06T09:26:10;0.30;48.60
13245;DHT22;6689;53.400;12.486;2024-01-06T09:28:38;0.30;43.80
13245;DHT22;6689;53.400;12.486;2024-01-06T09:31:06;0.30;27.30
13245;DHT22;6689;53.400;12.486;2024-01-06T09:33:37;0.30;32.10
13245;DHT22;6689;53.400;12.486;2024-01-06T09:36:05;0.30;44.70
13245;DHT22;6689;53.400;12.486;2024-01-06T09:38:34;0.30;29.70
13245;DHT22;6689;53.400;12.486;2024-01-06T09:41:02;0.30;55.30
13245;DHT22;6689;53.400;12.486;2024-01-06T09:43:29;0.20;42.20
13245;DHT22;6689;53.400;12.486;2024-01-06T09:46:02;0.30;42.90
13245;DHT22;6689;53.400;12.486;2024-01-06T09:48:32;0.20;36.00
13245;DHT22;6689;53.400;12.486;2024-01-06T09:51:04;0.30;55.60
13245;DHT22;6689;53.400;12.486;2024-01-06T09:53:34;0.20;49.20
13245;DHT22;6689;53.400;12.486;2024-01-06T09:56:04;0.20;66.90
13245;DHT22;6689;53.400;12.486;2024-01-06T09:58:31;0.20;68.80
13245;DHT22;6689;53.400;12.486;2024-01-06T10:01:00;0.10;36.00
13245;DHT22;6689;53.400;12.486;2024-01-06T10:03:30;0.30;51.40
13245;DHT22;6689;53.400;12.486;2024-01-06T10:06:00;0.20;35.40
13245;DHT22;6689;53.400;12.486;2024-01-06T10:08:32;0.20;32.90
13245;DHT22;6689;53.400;12.486;2024-01-06T10:11:01;0.10;60.20
13245;DHT22;6689;53.400;12.486;2024-01-06T10:13:28;0.20;61.80
13245;DHT22;6689;53.400;12.486;2024-01-06T10:15:55;0.30;37.40
13245;DHT22;6689;53.400;12.486;2024-01-06T10:18:25;0.20;56.50
13245;DHT22;6689;53.400;12.486;2024-01-06T10:20:55;0.20;51.90
13245;DHT22;6689;53.400;12.486;2024-01-06T10:23:23;0.20;91.60
13245;DHT22;6689;53.400;12.486;2024-01-06T10:25:54;0.30;71.80
13245;DHT22;6689;53.400;12.486;2024-01-06T10:28:21;0.30;58.80
13245;DHT22;6689;53.400;12.486;2024-01-06T10:30:53;0.30;52.70
13245;DHT22;6689;53.400;12.486;2024-01-06T10:33:21;0.20;59.50
13245;DHT22;6689;53.400;12.486;2024-01-06T10:35:49;0.20;68.10
13245;DHT22;6689;53.400;12.486;2024-01-06T10:38:17;0.30;53.90
13245;DHT22;6689;53.400;12.486;2024-01-06T10:40:58;0.40;60.60
13245;DHT22;6689;53.400;12.486;2024-01-06T10:43:26;0.30;49.20
13245;DHT22;6689;53.400;12.486;2024-01-06T10:45:56;0.30;66.20
13245;DHT22;6689;53.400;12.486;2024-01-06T10:48:25;0.10;99.90
13245;DHT22;6689;53.400;12.486;2024-01-06T10:50:55;0.10;82.90
13245;DHT22;6689;53.400;12.486;2024-01-06T10:53:23;0.00;53.70
13245;DHT22;6689;53.400;12.486;2024-01-06T10:55:53;0.20;45.90
13245;DHT22;6689;53.400;12.486;2024-01-06T10:58:22;0.30;52.90
13245;DHT22;6689;53.400;12.486;2024-01-06T11:00:50;0.40;32.20
13245;DHT22;6689;53.400;12.486;2024-01-06T11:03:18;0.30;41.70
13245;DHT22;6689;53.400;12.486;2024-01-06T11:05:45;0.40;66.00
13245;DHT22;6689;53.400;12.486;2024-01-06T11:08:17;0.40;66.90
13245;DHT22;6689;53.400;12.486;2024-01-06T11:10:46;0.40;43.80
13245;DHT22;6689;53.400;12.486;2024-01-06T11:13:15;0.40;26.90
13245;DHT22;6689;53.400;12.486;2024-01-06T11:15:49;0.40;26.60
13245;DHT22;6689;53.400;12.486;2024-01-06T11:18:35;0.40;37.70
13245;DHT22;6689;53.400;12.486;2024-01-06T11:21:20;0.40;1.00
13245;DHT22;6689;53.400;12.486;2024-01-06T11:24:24;0.50;36.10
13245;DHT22;6689;53.400;12.486;2024-01-06T11:26:56;0.50;47.90
13245;DHT22;6689;53.400;12.486;2024-01-06T11:29:23;0.50;14.90
13245;DHT22;6689;53.400;12.486;2024-01-06T11:32:27;0.50;15.80
13245;DHT22;6689;53.400;12.486;2024-01-06T11:34:55;0.50;17.60
13245;DHT22;6689;53.400;12.486;2024-01-06T11:37:25;0.20;42.20
13245;DHT22;6689;53.400;12.486;2024-01-06T11:39:53;0.50;46.20
13245;DHT22;6689;53.400;12.486;2024-01-06T11:42:20;0.40;58.10
13245;DHT22;6689;53.400;12.486;2024-01-06T11:44:51;0.50;13.00
13245;DHT22;6689;53.400;12.486;2024-01-06T11:47:18;0.40;53.80
13245;DHT22;6689;53.400;12.486;2024-01-06T11:49:54;0.50;32.30
13245;DHT22;6689;53.400;12.486;2024-01-06T11:52:25;0.50;44.90
13245;DHT22;6689;53.400;12.486;2024-01-06T11:54:53;0.50;26.70
13245;DHT22;6689;53.400;12.486;2024-01-06T11:57:21;0.30;12.80
13245;DHT22;6689;53.400;12.486;2024-01-06T11:59:49;0.40;26.50
13245;DHT22;6689;53.400;12.486;2024-01-06T12:02:18;0.30;50.00
13245;DHT22;6689;53.400;12.486;2024-01-06T12:04:50;0.30;24.00
13245;DHT22;6689;53.400;12.486;2024-01-06T12:07:18;0.40;24.50
13245;DHT22;6689;53.400;12.486;2024-01-06T12:09:45;0.40;25.10
13245;DHT22;6689;53.400;12.486;2024-01-06T12:12:15;0.40;15.80
13245;DHT22;6689;53.400;12.486;2024-01-06T12:14:42;0.40;19.40
13245;DHT22;6689;53.400;12.486;2024-01-06T12:17:10;0.40;11.30
13245;DHT22;6689;53.400;12.486;2024-01-06T12:19:39;0.50;5.50
13245;DHT22;6689;53.400;12.486;2024-01-06T12:22:14;0.40;16.40
13245;DHT22;6689;53.400;12.486;2024-01-06T12:24:41;0.30;1.00
13245;DHT22;6689;53.400;12.486;2024-01-06T12:27:11;0.30;1.00
13245;DHT22;6689;53.400;12.486;2024-01-06T12:29:39;0.40;9.60
13245;DHT22;6689;53.400;12.486;2024-01-06T12:32:08;0.40;1.00
13245;DHT22;6689;53.400;12.486;2024-01-06T12:34:36;0.40;1.00
13245;DHT22;6689;53.400;12.486;2024-01-06T12:37:06;0.40;8.50
13245;DHT22;6689;53.400;12.486;2024-01-06T12:39:35;0.30;1.00
13245;DHT22;6689;53.400;12.486;2024-01-06T12:42:02;0.30;8.60
13245;DHT22;6689;53.400;12.486;2024-01-06T12:44:30;0.30;24.00
13245;DHT22;6689;53.400;12.486;2024-01-06T12:46:59;0.30;31.30
13245;DHT22;6689;53.400;12.486;2024-01-06T12:49:26;0.30;24.70
13245;DHT22;6689;53.400;12.486;2024-01-06T12:51:54;0.40;24.00
13245;DHT22;6689;53.400;12.486;2024-01-06T12:54:22;0.30;37.70
13245;DHT22;6689;53.400;12.486;2024-01-06T12:56:51;0.30;43.20
13245;DHT22;6689;53.400;12.486;2024-01-06T12:59:19;0.20;99.90
13245;DHT22;6689;53.400;12.486;2024-01-06T13:01:46;0.20;99.90
13245;DHT22;6689;53.400;12.486;2024-01-06T13:04:15;0.30;82.00
13245;DHT22;6689;53.400;12.486;2024-01-06T13:06:43;0.20;99.90
13245;DHT22;6689;53.400;12.486;2024-01-06T13:09:10;0.30;99.90
13245;DHT22;6689;53.400;12.486;2024-01-06T13:11:42;0.30;99.90
13245;DHT22;6689;53.400;12.486;2024-01-06T13:14:13;0.10;99.90
13245;DHT22;6689;53.400;12.486;2024-01-06T13:16:40;0.20;99.90
13245;DHT22;6689;53.400;12.486;2024-01-06T13:19:08;0.10;99.90
13245;DHT22;6689;53.400;12.486;2024-01-06T13:21:35;0.10;99.90
13245;DHT22;6689;53.400;12.486;2024-01-06T13:24:06;0.10;99.90
13245;DHT22;6689;53.400;12.486;2024-01-06T13:26:33;0.00;99.90
13245;DHT22;6689;53.400;12.486;2024-01-06T13:29:02;0.10;99.90
13245;DHT22;6689;53.400;12.486;2024-01-06T13:31:31;-0.10;1.00
13245;DHT22;6689;53.400;12.486;2024-01-06T13:33:58;-0.10;99.90
13245;DHT22;6689;53.400;12.486;2024-01-06T13:36:25;0.00;80.30
13245;DHT22;6689;53.400;12.486;2024-01-06T13:38:53;-0.10;1.00
13245;DHT22;6689;53.400;12.486;2024-01-06T13:41:21;-0.20;1.00
13245;DHT22;6689;53.400;12.486;2024-01-06T13:43:52;-0.10;1.00
13245;DHT22;6689;53.400;12.486;2024-01-06T13:46:20;-0.10;1.00
13245;DHT22;6689;53.400;12.486;2024-01-06T13:48:52;-0.20;1.00
13245;DHT22;6689;53.400;12.486;2024-01-06T13:51:19;-0.10;1.00
13245;DHT22;6689;53.400;12.486;2024-01-06T13:53:46;0.00;99.90
13245;DHT22;6689;53.400;12.486;2024-01-06T13:56:16;-0.10;1.40
13245;DHT22;6689;53.400;12.486;2024-01-06T13:58:43;0.00;99.90
13245;DHT22;6689;53.400;12.486;2024-01-06T14:01:10;0.00;99.90
13245;DHT22;6689;53.400;12.486;2024-01-06T14:03:38;0.00;99.90
13245;DHT22;6689;53.400;12.486;2024-01-06T14:06:06;-0.10;99.90
13245;DHT22;6689;53.400;12.486;2024-01-06T14:08:34;0.10;99.90
13245;DHT22;6689;53.400;12.486;2024-01-06T14:11:05;0.00;99.90
13245;DHT22;6689;53.400;12.486;2024-01-06T14:13:33;0.00;99.90
13245;DHT22;6689;53.400;12.486;2024-01-06T14:16:00;0.00;99.90
13245;DHT22;6689;53.400;12.486;2024-01-06T14:18:27;0.00;99.90
13245;DHT22;6689;53.400;12.486;2024-01-06T14:20:56;0.10;99.90
13245;DHT22;6689;53.400;12.486;2024-01-06T14:23:25;0.10;99.90
13245;DHT22;6689;53.400;12.486;2024-01-06T14:25:55;0.10;99.90
13245;DHT22;6689;53.400;12.486;2024-01-06T14:28:26;0.10;99.90
13245;DHT22;6689;53.400;12.486;2024-01-06T14:30:53;0.10;99.90
13245;DHT22;6689;53.400;12.486;2024-01-06T14:33:22;0.10;99.90
13245;DHT22;6689;53.400;12.486;2024-01-06T14:35:52;0.20;99.90
13245;DHT22;6689;53.400;12.486;2024-01-06T14:38:20;0.10;99.90
13245;DHT22;6689;53.400;12.486;2024-01-06T14:40:50;0.10;99.90
13245;DHT22;6689;53.400;12.486;2024-01-06T14:43:18;0.10;99.90
13245;DHT22;6689;53.400;12.486;2024-01-06T14:45:46;-0.10;99.90
13245;DHT22;6689;53.400;12.486;2024-01-06T14:48:14;-0.20;99.90
13245;DHT22;6689;53.400;12.486;2024-01-06T14:50:41;0.00;99.90
13245;DHT22;6689;53.400;12.486;2024-01-06T14:53:08;0.00;99.90
13245;DHT22;6689;53.400;12.486;2024-01-06T14:55:36;0.00;99.90
13245;DHT22;6689;53.400;12.486;2024-01-06T14:58:06;0.00;99.90
13245;DHT22;6689;53.400;12.486;2024-01-06T15:00:35;0.10;99.90
13245;DHT22;6689;53.400;12.486;2024-01-06T15:03:03;0.00;99.90
13245;DHT22;6689;53.400;12.486;2024-01-06T15:05:30;-0.10;99.90
13245;DHT22;6689;53.400;12.486;2024-01-06T15:07:58;0.00;99.90
13245;DHT22;6689;53.400;12.486;2024-01-06T15:10:25;-0.20;99.90
13245;DHT22;6689;53.400;12.486;2024-01-06T15:12:53;-0.10;99.90
13245;DHT22;6689;53.400;12.486;2024-01-06T15:15:22;0.00;99.90
13245;DHT22;6689;53.400;12.486;2024-01-06T15:17:50;0.10;99.90
13245;DHT22;6689;53.400;12.486;2024-01-06T15:20:26;0.00;99.90
13245;DHT22;6689;53.400;12.486;2024-01-06T15:22:53;0.00;99.90
13245;DHT22;6689;53.400;12.486;2024-01-06T15:25:20;0.00;99.90
13245;DHT22;6689;53.400;12.486;2024-01-06T15:27:48;0.00;99.90
13245;DHT22;6689;53.400;12.486;2024-01-06T15:30:15;0.00;84.40
13245;DHT22;6689;53.400;12.486;2024-01-06T15:32:45;0.00;89.40
13245;DHT22;6689;53.400;12.486;2024-01-06T15:35:14;0.00;70.60
13245;DHT22;6689;53.400;12.486;2024-01-06T15:37:42;-0.10;99.90
13245;DHT22;6689;53.400;12.486;2024-01-06T15:40:10;0.00;93.80
13245;DHT22;6689;53.400;12.486;2024-01-06T15:42:37;0.10;67.70
13245;DHT22;6689;53.400;12.486;2024-01-06T15:45:05;0.10;43.90
13245;DHT22;6689;53.400;12.486;2024-01-06T15:47:32;0.10;59.80
13245;DHT22;6689;53.400;12.486;2024-01-06T15:50:02;0.10;23.80
13245;DHT22;6689;53.400;12.486;2024-01-06T15:52:30;0.10;23.80